GCTS

Tenerife South Airport

Tenerife Island, Spain
TAF GCTS 210800Z 2109/2209 VRB05KT 9999 SCT030 TX25/2113Z TN20/2204Z BECMG 2109/2112 12014KT
Issued Valid From Valid To
Jun-21 @ 08:00 UTC
(10 hours ago)
Jun-21 @ 09:00 UTC
(9 hours ago)
Jun-22 @ 09:00 UTC
(in 15 hours)
Jun-21 @ 09:00 to Jun-22 @ 09:00
TAF GCTS 210800Z 2109/2209 VRB05KT 9999 SCT030 TX25/2113Z TN20/2204Z
Wind Visibility Clouds
Variable at 5 knots 10,000+ meters
  • Scattered at 3,000' AGL
Becoming Jun-21 @ 09:00 to Jun-22 @ 09:00
BECMG 2109/2112 12014KT
Wind Visibility Clouds
120° at 14 knots 10,000+ meters
  • Scattered at 3,000' AGL
TAF GCTS 210800Z 2109/2209 VRB05KT 9999 SCT030 TX25/2113Z TN20/2204Z BECMG 2109/2112 12014KT
Issued Jun-21 @ 08:00 UTC
(10 hours ago)
Valid From Jun-21 @ 09:00 UTC
(9 hours ago)
Valid To Jun-22 @ 09:00 UTC
(in 15 hours)
Jun-21 @ 09:00 - Jun-22 @ 09:00
Wind Visibility
Variable at 5 knots 10,000+ meters
Clouds
  • Scattered at 3,000' AGL
Becoming Jun-21 @ 09:00 - Jun-22 @ 09:00
Wind Visibility
120° at 14 knots 10,000+ meters
Clouds
  • Scattered at 3,000' AGL